»·PEaware :: N461D KSBA-KVNY

N461D :: KSBA-KVNY

FLIGHT INFORMATION

Flight Status: Arrived
Operator: Privately registered:
United States
More flights under this callsign
Pilot: Daniel R. (17770)
Aircraft: CESSNA 172 SKYHAWK
(C172)
More flights by this aircraft type
Origin: KSBA Santa Barbara Mun
United States
Destination: KVNY Van Nuys
United States
More flights between these airports :: More routes between these airports
Route: +KWANG CMA CMA072 GINNA
File this flight plan on PilotEdge
Remarks:
Altitude:
(Current/Filed)
5,000ft
Speed:
(Current/Filed)
0kts
Departed: 04-Jan-18 04:37 PM
Arrived: 04-Jan-18 05:36 PM
Distance/Time
Traveled:
68nm/0:59
Distance/Time
To Go:
Arrived

Flight Plot

Page will automatically refresh every two minutes.


Map Options




Map Legend


Flown Route
Filed Route
Departure Airport
Arrival Airport
Navaid (VOR, NDB)
Fix

Horizontal Profiles

Position Reports

Time Latitude Longitude Heading Altitude Ground
Speed
04-Jan-18 16:42 34.364161 -119.695549 68 4227ft 95kts
04-Jan-18 16:43 34.375532 -119.665898 68 4724ft 98kts
04-Jan-18 16:44 34.367916 -119.641090 132 5137ft 98kts
04-Jan-18 16:45 34.353982 -119.613226 123 5011ft 86kts
04-Jan-18 16:46 34.342255 -119.587847 122 5012ft 86kts
04-Jan-18 16:47 34.330773 -119.562390 122 5013ft 86kts
04-Jan-18 16:48 34.319397 -119.536515 122 5013ft 87kts
04-Jan-18 16:49 34.308469 -119.510253 119 5012ft 88kts
04-Jan-18 16:50 34.298163 -119.483286 118 5013ft 89kts
04-Jan-18 16:51 34.293610 -119.453147 101 5013ft 92kts
04-Jan-18 16:52 34.287473 -119.424132 137 5013ft 87kts
04-Jan-18 16:53 34.272259 -119.401160 137 5022ft 87kts
04-Jan-18 16:54 34.255896 -119.379192 137 5022ft 88kts
04-Jan-18 16:55 34.239648 -119.357286 137 5022ft 89kts
04-Jan-18 16:56 34.223094 -119.334694 135 5022ft 93kts
04-Jan-18 16:57 34.210045 -119.306359 117 5021ft 99kts
04-Jan-18 16:58 34.204535 -119.273136 101 5021ft 102kts
04-Jan-18 16:59 34.202966 -119.238396 96 5020ft 103kts
04-Jan-18 17:00 34.206057 -119.203516 85 5019ft 106kts
04-Jan-18 17:01 34.209428 -119.168130 89 5004ft 105kts
04-Jan-18 17:02 34.210641 -119.133192 95 5004ft 103kts
04-Jan-18 17:03 34.211073 -119.098320 93 5004ft 103kts
04-Jan-18 17:04 34.212579 -119.063523 91 5004ft 104kts
04-Jan-18 17:05 34.214336 -119.028658 92 5005ft 104kts
04-Jan-18 17:06 34.215842 -118.992993 91 5005ft 107kts
04-Jan-18 17:07 34.217319 -118.956951 91 5005ft 107kts
04-Jan-18 17:08 34.218784 -118.920864 91 5004ft 107kts
04-Jan-18 17:09 34.220242 -118.884664 91 5004ft 108kts
04-Jan-18 17:10 34.221692 -118.848415 91 5004ft 108kts
04-Jan-18 17:11 34.221629 -118.812231 97 5014ft 106kts
04-Jan-18 17:12 34.220307 -118.776334 96 5013ft 107kts
04-Jan-18 17:13 34.218965 -118.739918 95 5012ft 109kts
04-Jan-18 17:14 34.217606 -118.703118 93 5012ft 110kts
04-Jan-18 17:15 34.216226 -118.666254 92 5011ft 110kts
04-Jan-18 17:16 34.207139 -118.629690 115 4670ft 116kts
04-Jan-18 17:17 34.193819 -118.595501 115 4172ft 110kts
04-Jan-18 17:18 34.189215 -118.564044 38 4015ft 94kts
04-Jan-18 17:19 34.211603 -118.560766 357 4516ft 87kts
04-Jan-18 17:20 34.237194 -118.560348 357 4993ft 97kts
04-Jan-18 17:21 34.265708 -118.560196 358 4995ft 99kts
04-Jan-18 17:22 34.292823 -118.560094 357 4996ft 96kts
04-Jan-18 17:23 34.319632 -118.560070 357 4996ft 96kts
04-Jan-18 17:24 34.346284 -118.560125 357 4996ft 95kts
04-Jan-18 17:25 34.372844 -118.560256 357 4996ft 95kts
04-Jan-18 17:26 34.399450 -118.560471 357 4996ft 95kts
04-Jan-18 17:27 34.426036 -118.560770 357 4996ft 96kts
04-Jan-18 17:28 34.452725 -118.561150 357 4996ft 96kts
04-Jan-18 17:29 34.479380 -118.561607 356 4996ft 96kts
04-Jan-18 17:30 34.505748 -118.559905 33 4993ft 98kts
04-Jan-18 17:31 34.495970 -118.534232 151 4994ft 106kts
04-Jan-18 17:32 34.470224 -118.516423 147 4995ft 107kts
04-Jan-18 17:33 34.441056 -118.510861 176 4895ft 109kts
04-Jan-18 17:34 34.412471 -118.509209 175 4897ft 103kts
04-Jan-18 17:35 34.383730 -118.500434 169 4852ft 106kts
04-Jan-18 17:36 34.358611 -118.502397 165 4444ft 112kts
04-Jan-18 17:37 34.327776 -118.495796 174 3716ft 114kts
04-Jan-18 17:38 34.296020 -118.496500 187 2960ft 113kts
04-Jan-18 17:39 34.261375 -118.495218 174 2025ft 97kts
04-Jan-18 17:40 34.241335 -118.493399 174 1514ft 77kts
04-Jan-18 17:41 34.221514 -118.491419 173 1004ft 59kts
04-Jan-18 17:42 34.210215 -118.490988 218 804ft 12kts
04-Jan-18 17:43 34.210122 -118.491311 259 804ft 0kts
04-Jan-18 17:44 34.205034 -118.491075 175 804ft 24kts
04-Jan-18 17:45 34.203490 -118.491395 179 804ft 0kts

Navigation Log

Ident Type
1. KSBA Airport
2. KWANG Fix
3. CMA Navaid
4. GINNA Fix
5. KVNY Airport